Time;durP1;ratioP1;P1;durP2;ratioP2;P2;SDS_P1;SDS_P2;PMS_P1;PMS_P2;Temp;Humidity;BMP_temperature;BMP_pressure;BME280_temperature;BME280_humidity;BME280_pressure;Samples;Min_cycle;Max_cycle;Signal;HPM_P1;HPM_P2
2021/10/03 00:01:22;;;;;;;3.57;3.27;;;;;;;;;;5033390;28;20515;-49
2021/10/03 00:03:53;;;;;;;4.93;3.70;;;;;;;;;;5032087;28;20426;-50
2021/10/03 00:06:19;;;;;;;3.70;3.20;;;;;;;;;;5032813;28;20442;-49
2021/10/03 00:08:46;;;;;;;3.93;3.57;;;;;;;;;;5033403;28;20482;-50
2021/10/03 00:11:12;;;;;;;5.57;3.80;;;;;;;;;;5033557;28;20732;-48
2021/10/03 00:13:38;;;;;;;3.10;2.87;;;;;;;;;;5029986;28;20438;-49
2021/10/03 00:16:04;;;;;;;5.00;2.93;;;;;;;;;;5032066;28;20416;-49
2021/10/03 00:18:32;;;;;;;5.10;3.50;;;;;;;;;;5033141;28;20420;-50
2021/10/03 00:20:58;;;;;;;3.47;3.07;;;;;;;;;;5032987;28;20456;-49
2021/10/03 00:23:25;;;;;;;3.63;3.27;;;;;;;;;;5032050;28;20450;-50
2021/10/03 00:25:51;;;;;;;4.10;3.43;;;;;;;;;;5032894;28;20777;-49
2021/10/03 00:28:17;;;;;;;3.90;3.60;;;;;;;;;;5033013;28;20474;-52
2021/10/03 00:30:45;;;;;;;4.00;3.43;;;;;;;;;;5032357;28;20383;-50
2021/10/03 00:33:11;;;;;;;3.00;2.70;;;;;;;;;;5032343;28;20458;-51
2021/10/03 00:35:37;;;;;;;4.33;3.83;;;;;;;;;;5032788;28;20380;-50
2021/10/03 00:38:04;;;;;;;6.20;3.53;;;;;;;;;;5032855;28;20415;-50
2021/10/03 00:40:33;;;;;;;4.50;4.00;;;;;;;;;;5032637;28;20425;-51
2021/10/03 00:43:01;;;;;;;5.20;4.00;;;;;;;;;;5032329;28;20405;-50
2021/10/03 00:45:27;;;;;;;9.33;3.47;;;;;;;;;;5032596;28;20462;-48
2021/10/03 00:47:53;;;;;;;3.93;3.30;;;;;;;;;;5032633;28;20810;-49
2021/10/03 00:50:19;;;;;;;5.80;3.53;;;;;;;;;;5032557;28;20470;-50
2021/10/03 00:52:46;;;;;;;6.07;4.07;;;;;;;;;;5032255;28;20401;-51
2021/10/03 00:55:13;;;;;;;4.00;3.60;;;;;;;;;;5032389;28;20414;-51
2021/10/03 00:57:40;;;;;;;4.00;3.70;;;;;;;;;;5032729;28;20772;-50
2021/10/03 01:00:06;;;;;;;4.37;3.90;;;;;;;;;;5030522;28;20549;-50
2021/10/03 01:02:32;;;;;;;5.13;4.40;;;;;;;;;;5030463;28;20404;-50
2021/10/03 01:04:58;;;;;;;6.57;4.23;;;;;;;;;;5031727;28;20760;-50
2021/10/03 01:07:24;;;;;;;4.70;4.20;;;;;;;;;;5032159;28;20409;-50
2021/10/03 01:09:50;;;;;;;4.37;3.87;;;;;;;;;;5032169;28;20417;-48
2021/10/03 01:12:17;;;;;;;4.40;4.00;;;;;;;;;;5031606;28;20409;-47
2021/10/03 01:14:43;;;;;;;4.13;3.77;;;;;;;;;;5032112;28;20792;-49
2021/10/03 01:17:09;;;;;;;3.83;3.53;;;;;;;;;;5032245;28;20403;-51
2021/10/03 01:19:36;;;;;;;5.10;4.60;;;;;;;;;;5032090;28;20409;-51
2021/10/03 01:22:04;;;;;;;9.60;4.90;;;;;;;;;;5031692;28;20410;-50
2021/10/03 01:24:33;;;;;;;3.63;3.30;;;;;;;;;;5031956;28;20766;-51
2021/10/03 01:26:59;;;;;;;5.70;3.77;;;;;;;;;;5032037;28;20402;-51
2021/10/03 01:29:25;;;;;;;4.40;4.00;;;;;;;;;;5031947;28;20410;-51
2021/10/03 01:31:51;;;;;;;3.63;3.17;;;;;;;;;;5031724;28;20770;-51
2021/10/03 01:34:16;;;;;;;5.83;4.30;;;;;;;;;;5031859;28;20502;-51
2021/10/03 01:36:42;;;;;;;4.63;3.90;;;;;;;;;;5031787;28;20918;-49
2021/10/03 01:39:10;;;;;;;5.30;4.37;;;;;;;;;;5029522;28;20795;-48
2021/10/03 01:41:36;;;;;;;5.50;4.27;;;;;;;;;;5031740;28;20997;-51
2021/10/03 01:44:02;;;;;;;4.40;3.60;;;;;;;;;;5031632;28;20398;-51
2021/10/03 01:46:28;;;;;;;4.50;4.10;;;;;;;;;;5031855;28;20414;-51
2021/10/03 01:48:54;;;;;;;4.13;3.50;;;;;;;;;;5016688;28;20403;-51
2021/10/03 01:51:20;;;;;;;4.30;3.60;;;;;;;;;;5012022;28;20765;-52
2021/10/03 01:53:48;;;;;;;4.00;3.60;;;;;;;;;;5018224;28;20447;-50
2021/10/03 01:56:14;;;;;;;5.33;3.97;;;;;;;;;;5031699;28;20457;-51
2021/10/03 01:58:42;;;;;;;3.90;3.43;;;;;;;;;;5031713;28;20407;-51
2021/10/03 02:01:14;;;;;;;4.60;3.07;;;;;;;;;;5031466;28;20573;-50
2021/10/03 02:03:40;;;;;;;3.30;3.00;;;;;;;;;;5031357;28;20916;-48
2021/10/03 02:06:06;;;;;;;3.50;3.03;;;;;;;;;;5031785;28;20404;-51
2021/10/03 02:08:32;;;;;;;3.30;2.60;;;;;;;;;;5031618;28;20411;-51
2021/10/03 02:10:58;;;;;;;9.30;4.13;;;;;;;;;;5031967;28;20413;-51
2021/10/03 02:13:24;;;;;;;3.57;3.27;;;;;;;;;;5035186;28;20403;-50
2021/10/03 02:15:51;;;;;;;2.93;2.73;;;;;;;;;;5035410;28;20417;-51
2021/10/03 02:18:18;;;;;;;3.03;2.80;;;;;;;;;;5035400;28;20499;-49
2021/10/03 02:20:44;;;;;;;3.10;2.90;;;;;;;;;;5035327;28;20541;-50
2021/10/03 02:23:12;;;;;;;4.87;2.70;;;;;;;;;;5035013;28;20407;-50
2021/10/03 02:25:43;;;;;;;2.80;2.60;;;;;;;;;;5032263;28;20402;-51
2021/10/03 02:28:10;;;;;;;5.20;2.90;;;;;;;;;;5027306;28;20603;-52
2021/10/03 02:30:36;;;;;;;3.83;3.27;;;;;;;;;;5035209;28;20773;-48
2021/10/03 02:33:02;;;;;;;3.97;3.00;;;;;;;;;;5034585;28;20430;-50
2021/10/03 02:35:28;;;;;;;3.87;3.03;;;;;;;;;;5035284;28;20837;-51
2021/10/03 02:37:54;;;;;;;3.23;3.03;;;;;;;;;;5034009;28;20823;-51
2021/10/03 02:40:20;;;;;;;3.30;2.90;;;;;;;;;;5035008;28;20454;-52
2021/10/03 02:42:46;;;;;;;4.33;3.07;;;;;;;;;;5034915;28;20781;-50
2021/10/03 02:45:12;;;;;;;3.43;3.23;;;;;;;;;;5034984;28;20898;-50
2021/10/03 02:47:38;;;;;;;3.57;3.30;;;;;;;;;;5034940;28;20866;-50
2021/10/03 02:50:05;;;;;;;3.30;3.00;;;;;;;;;;5034943;28;20378;-51
2021/10/03 02:52:31;;;;;;;3.43;3.17;;;;;;;;;;5030362;28;20414;-51
2021/10/03 02:54:57;;;;;;;3.10;2.77;;;;;;;;;;5024408;28;20899;-50
2021/10/03 02:57:23;;;;;;;3.20;2.90;;;;;;;;;;5015069;28;20386;-51
2021/10/03 02:59:49;;;;;;;3.93;2.83;;;;;;;;;;5014875;28;20965;-50
2021/10/03 03:02:15;;;;;;;3.40;2.93;;;;;;;;;;5014662;28;20454;-50
2021/10/03 03:04:41;;;;;;;2.80;2.57;;;;;;;;;;5014797;28;20922;-50
2021/10/03 03:07:07;;;;;;;3.13;2.90;;;;;;;;;;5026198;28;20410;-50
2021/10/03 03:09:32;;;;;;;3.80;3.37;;;;;;;;;;5034669;28;20402;-50
2021/10/03 03:11:58;;;;;;;3.43;3.13;;;;;;;;;;5034312;28;20404;-50
2021/10/03 03:14:24;;;;;;;3.73;3.37;;;;;;;;;;5034478;28;20407;-48
2021/10/03 03:16:51;;;;;;;5.17;3.50;;;;;;;;;;5034366;28;20462;-51
2021/10/03 03:19:18;;;;;;;3.67;3.23;;;;;;;;;;5033391;28;20468;-51
2021/10/03 03:21:45;;;;;;;3.43;3.17;;;;;;;;;;5034307;28;20520;-48
2021/10/03 03:24:11;;;;;;;5.07;3.90;;;;;;;;;;5033112;28;20416;-52
2021/10/03 03:26:38;;;;;;;4.50;4.10;;;;;;;;;;5034179;28;20404;-48
2021/10/03 03:29:05;;;;;;;5.40;3.90;;;;;;;;;;5034163;28;20377;-51
2021/10/03 03:31:31;;;;;;;3.70;3.40;;;;;;;;;;5033143;28;20408;-51
2021/10/03 03:33:57;;;;;;;5.73;3.87;;;;;;;;;;5033779;28;20402;-52
2021/10/03 03:36:23;;;;;;;6.60;4.33;;;;;;;;;;5034102;28;20381;-51
2021/10/03 03:38:49;;;;;;;4.00;3.70;;;;;;;;;;5032822;28;20442;-52
2021/10/03 03:41:15;;;;;;;4.50;3.90;;;;;;;;;;5033765;28;20432;-50
2021/10/03 03:43:42;;;;;;;4.70;4.30;;;;;;;;;;5032880;28;20904;-51
2021/10/03 03:46:08;;;;;;;4.87;4.37;;;;;;;;;;5033835;28;20382;-51
2021/10/03 03:48:34;;;;;;;6.10;4.30;;;;;;;;;;5033706;28;20767;-50
2021/10/03 03:51:03;;;;;;;5.77;4.40;;;;;;;;;;5033654;28;20908;-50
2021/10/03 03:53:29;;;;;;;5.17;4.77;;;;;;;;;;5033374;28;20403;-50
2021/10/03 03:55:55;;;;;;;5.30;4.23;;;;;;;;;;5033563;28;20405;-50
2021/10/03 03:58:21;;;;;;;5.23;4.70;;;;;;;;;;5033524;28;20410;-49
2021/10/03 04:00:47;;;;;;;5.23;4.73;;;;;;;;;;5033554;28;20503;-50
2021/10/03 04:03:13;;;;;;;6.07;5.47;;;;;;;;;;5033175;28;20426;-51
2021/10/03 04:05:39;;;;;;;9.20;7.27;;;;;;;;;;5033452;28;20377;-50
2021/10/03 04:08:09;;;;;;;6.40;5.67;;;;;;;;;;5033394;28;20377;-50
2021/10/03 04:10:35;;;;;;;6.27;5.67;;;;;;;;;;5033341;28;20931;-50
2021/10/03 04:13:01;;;;;;;13.53;6.30;;;;;;;;;;5032950;28;20429;-50
2021/10/03 04:15:27;;;;;;;7.53;5.80;;;;;;;;;;5033096;28;20479;-50
2021/10/03 04:17:53;;;;;;;5.93;5.33;;;;;;;;;;5033121;28;20393;-49
2021/10/03 04:20:19;;;;;;;7.30;5.67;;;;;;;;;;5033057;28;20424;-47
2021/10/03 04:22:45;;;;;;;6.53;5.80;;;;;;;;;;5032892;28;20407;-48
2021/10/03 04:25:11;;;;;;;7.27;6.57;;;;;;;;;;5033067;28;20385;-50
2021/10/03 04:27:37;;;;;;;13.67;6.53;;;;;;;;;;5033011;28;20868;-50
2021/10/03 04:30:04;;;;;;;9.00;7.60;;;;;;;;;;5032927;28;20875;-50
2021/10/03 04:32:30;;;;;;;9.87;6.93;;;;;;;;;;5032642;28;20868;-49
2021/10/03 04:34:56;;;;;;;9.77;7.40;;;;;;;;;;5031509;28;20522;-51
2021/10/03 04:37:25;;;;;;;7.83;6.80;;;;;;;;;;5032299;28;20896;-50
2021/10/03 04:39:51;;;;;;;9.23;7.07;;;;;;;;;;5032779;28;20886;-50
2021/10/03 04:42:19;;;;;;;14.40;8.07;;;;;;;;;;5032523;28;20405;-50
2021/10/03 04:44:45;;;;;;;11.13;7.57;;;;;;;;;;5032583;28;20472;-50
2021/10/03 04:47:11;;;;;;;11.83;7.93;;;;;;;;;;5032955;28;20398;-51
2021/10/03 04:49:37;;;;;;;8.70;6.97;;;;;;;;;;5021955;28;20433;-50
2021/10/03 04:52:03;;;;;;;14.10;8.17;;;;;;;;;;5012685;28;20866;-50
2021/10/03 04:54:29;;;;;;;10.40;7.97;;;;;;;;;;5027320;28;20459;-51
2021/10/03 04:56:55;;;;;;;9.30;8.40;;;;;;;;;;5031635;28;20406;-49
2021/10/03 04:59:21;;;;;;;12.30;8.07;;;;;;;;;;5031340;28;20443;-48
2021/10/03 05:01:47;;;;;;;11.37;7.67;;;;;;;;;;5031270;28;20457;-48
2021/10/03 05:04:13;;;;;;;9.60;7.63;;;;;;;;;;5032357;28;20933;-50
2021/10/03 05:06:39;;;;;;;9.37;8.37;;;;;;;;;;5032328;28;20763;-50
2021/10/03 05:09:05;;;;;;;10.60;8.63;;;;;;;;;;5030884;28;20448;-50
2021/10/03 05:11:31;;;;;;;11.00;8.83;;;;;;;;;;5032089;28;20921;-50
2021/10/03 05:14:00;;;;;;;11.10;8.50;;;;;;;;;;5031872;28;20430;-50
2021/10/03 05:16:26;;;;;;;9.80;8.00;;;;;;;;;;5031334;28;20459;-50
2021/10/03 05:18:52;;;;;;;10.20;8.30;;;;;;;;;;5031237;28;20441;-50
2021/10/03 05:21:18;;;;;;;10.20;8.63;;;;;;;;;;5031912;28;20527;-48
2021/10/03 05:23:44;;;;;;;9.83;8.47;;;;;;;;;;5030980;28;20461;-48
2021/10/03 05:26:10;;;;;;;10.37;8.70;;;;;;;;;;5032001;28;20889;-51
2021/10/03 05:28:36;;;;;;;13.73;8.63;;;;;;;;;;5031587;28;20426;-49
2021/10/03 05:31:02;;;;;;;11.20;8.87;;;;;;;;;;5031904;28;20448;-50
2021/10/03 05:33:29;;;;;;;10.57;8.23;;;;;;;;;;5030791;28;20492;-49
2021/10/03 05:39:00;;;;;;;13.33;9.40;;;;;;;;;;5030958;28;20417;-50
2021/10/03 05:41:26;;;;;;;12.00;8.37;;;;;;;;;;5032067;28;20541;-49
2021/10/03 05:43:52;;;;;;;14.43;10.27;;;;;;;;;;5030704;28;20460;-48
2021/10/03 05:46:18;;;;;;;11.60;9.57;;;;;;;;;;5030509;28;20402;-47
2021/10/03 05:48:44;;;;;;;11.33;9.10;;;;;;;;;;5031720;28;20402;-50
2021/10/03 05:51:10;;;;;;;13.80;10.40;;;;;;;;;;5031802;28;20486;-49
2021/10/03 05:53:36;;;;;;;11.10;9.20;;;;;;;;;;5030583;28;20579;-49
2021/10/03 05:56:03;;;;;;;12.97;9.40;;;;;;;;;;5031719;28;20373;-50
2021/10/03 05:58:29;;;;;;;12.33;9.50;;;;;;;;;;5031685;28;20413;-49
2021/10/03 06:00:55;;;;;;;14.63;10.23;;;;;;;;;;5031617;28;20450;-48
2021/10/03 06:03:21;;;;;;;16.53;9.77;;;;;;;;;;5030287;28;20507;-48
2021/10/03 06:05:47;;;;;;;11.00;8.97;;;;;;;;;;5031581;28;20369;-49
2021/10/03 06:08:16;;;;;;;14.33;9.40;;;;;;;;;;5031598;28;20917;-50
2021/10/03 06:10:43;;;;;;;10.97;9.57;;;;;;;;;;5031777;28;20447;-49
2021/10/03 06:13:09;;;;;;;14.50;10.63;;;;;;;;;;5029150;28;20453;-51
2021/10/03 06:15:37;;;;;;;12.43;10.43;;;;;;;;;;5030597;28;20452;-50
2021/10/03 06:18:03;;;;;;;15.20;9.40;;;;;;;;;;5031487;28;20414;-50
2021/10/03 06:20:29;;;;;;;18.70;10.47;;;;;;;;;;5031447;28;20538;-51
2021/10/03 06:22:55;;;;;;;16.53;10.13;;;;;;;;;;5030998;28;20921;-49
2021/10/03 06:25:21;;;;;;;12.20;9.63;;;;;;;;;;5031454;28;20513;-49
2021/10/03 06:27:47;;;;;;;12.27;9.83;;;;;;;;;;5030300;28;20401;-49
2021/10/03 06:30:13;;;;;;;12.40;8.80;;;;;;;;;;5031684;28;20776;-49
2021/10/03 06:32:39;;;;;;;12.77;9.97;;;;;;;;;;5031004;28;20381;-51
2021/10/03 06:35:05;;;;;;;12.27;10.70;;;;;;;;;;5031354;28;20875;-51
2021/10/03 06:37:31;;;;;;;16.20;9.30;;;;;;;;;;5030949;28;20432;-48
2021/10/03 06:39:58;;;;;;;11.43;9.23;;;;;;;;;;5031413;28;20452;-51
2021/10/03 06:42:24;;;;;;;10.50;8.83;;;;;;;;;;5030988;28;20469;-50
2021/10/03 06:44:50;;;;;;;12.13;8.80;;;;;;;;;;5030965;28;20385;-49
2021/10/03 06:47:16;;;;;;;15.83;9.30;;;;;;;;;;5030623;28;20488;-50
2021/10/03 06:49:42;;;;;;;11.50;8.53;;;;;;;;;;5031213;28;20435;-51
2021/10/03 06:52:09;;;;;;;11.67;8.57;;;;;;;;;;5030600;28;20460;-48
2021/10/03 06:54:36;;;;;;;13.60;8.60;;;;;;;;;;5030925;28;20454;-50
2021/10/03 06:57:02;;;;;;;12.73;8.27;;;;;;;;;;5030387;28;20383;-51
2021/10/03 06:59:31;;;;;;;10.70;8.20;;;;;;;;;;5033709;28;20418;-51
2021/10/03 07:01:57;;;;;;;9.70;8.70;;;;;;;;;;5034206;28;20466;-50
2021/10/03 07:04:23;;;;;;;16.87;8.70;;;;;;;;;;5034531;28;20400;-50
2021/10/03 07:06:49;;;;;;;12.37;7.67;;;;;;;;;;5034448;28;20486;-50
2021/10/03 07:09:15;;;;;;;9.10;7.00;;;;;;;;;;5034526;28;20407;-50
2021/10/03 07:11:41;;;;;;;15.63;8.03;;;;;;;;;;5034350;28;20405;-50
2021/10/03 07:14:07;;;;;;;10.27;8.20;;;;;;;;;;5031844;28;20455;-50
2021/10/03 07:16:33;;;;;;;11.73;8.53;;;;;;;;;;5034444;28;20432;-50
2021/10/03 07:18:59;;;;;;;11.77;7.90;;;;;;;;;;5034598;28;20377;-51
2021/10/03 07:21:25;;;;;;;11.00;9.37;;;;;;;;;;5034136;28;20988;-50
2021/10/03 07:23:51;;;;;;;13.33;9.87;;;;;;;;;;5029786;28;20929;-50
2021/10/03 07:26:16;;;;;;;12.07;9.20;;;;;;;;;;5014458;28;20418;-48
2021/10/03 07:28:42;;;;;;;11.17;8.67;;;;;;;;;;5019293;28;20476;-50
2021/10/03 07:31:09;;;;;;;9.67;8.40;;;;;;;;;;5034061;28;20401;-49
2021/10/03 07:33:35;;;;;;;9.73;7.83;;;;;;;;;;5032833;28;20428;-48
2021/10/03 07:36:01;;;;;;;10.10;8.00;;;;;;;;;;5033049;28;20409;-49
2021/10/03 07:38:27;;;;;;;11.20;8.27;;;;;;;;;;5033162;28;20429;-48
2021/10/03 07:40:53;;;;;;;10.23;9.07;;;;;;;;;;5033037;28;20428;-47
2021/10/03 07:43:19;;;;;;;9.60;8.30;;;;;;;;;;5033613;28;20918;-49
2021/10/03 07:45:45;;;;;;;11.60;7.93;;;;;;;;;;5018588;28;20436;-49
2021/10/03 07:48:11;;;;;;;10.47;8.33;;;;;;;;;;5014018;28;20375;-50
2021/10/03 07:50:37;;;;;;;9.70;8.27;;;;;;;;;;5022675;28;20575;-50
2021/10/03 07:53:03;;;;;;;9.47;8.20;;;;;;;;;;5033530;28;20911;-51
2021/10/03 07:55:29;;;;;;;12.07;8.83;;;;;;;;;;5033007;28;20786;-50
2021/10/03 07:58:03;;;;;;;11.17;8.53;;;;;;;;;;5032761;28;20432;-49
2021/10/03 08:00:29;;;;;;;12.30;9.33;;;;;;;;;;5032737;28;20428;-51
2021/10/03 08:02:55;;;;;;;12.80;8.47;;;;;;;;;;5032357;28;20431;-49
2021/10/03 08:05:21;;;;;;;17.00;9.97;;;;;;;;;;5031881;28;20434;-49
2021/10/03 08:07:47;;;;;;;10.90;9.50;;;;;;;;;;5033524;28;20445;-49
2021/10/03 08:10:12;;;;;;;13.37;9.00;;;;;;;;;;5033061;28;20396;-49
2021/10/03 08:12:38;;;;;;;14.10;9.10;;;;;;;;;;5033026;28;20434;-49
2021/10/03 08:15:05;;;;;;;10.77;8.70;;;;;;;;;;5031277;28;20905;-49
2021/10/03 08:17:31;;;;;;;20.90;9.07;;;;;;;;;;5032469;28;20529;-49
2021/10/03 08:19:56;;;;;;;12.40;8.73;;;;;;;;;;5033067;28;20813;-49
2021/10/03 08:22:22;;;;;;;10.03;8.67;;;;;;;;;;5033016;28;20763;-48
2021/10/03 08:24:48;;;;;;;11.50;9.00;;;;;;;;;;5033077;28;20790;-47
2021/10/03 08:27:14;;;;;;;10.13;9.03;;;;;;;;;;5033285;28;20464;-50
2021/10/03 08:29:40;;;;;;;13.47;9.90;;;;;;;;;;5033066;28;20380;-50
2021/10/03 08:32:06;;;;;;;12.50;8.97;;;;;;;;;;5032686;28;20771;-50
2021/10/03 08:34:32;;;;;;;15.60;9.87;;;;;;;;;;5031834;28;20904;-50
2021/10/03 08:36:58;;;;;;;14.33;8.87;;;;;;;;;;5032369;28;20412;-49
2021/10/03 08:39:24;;;;;;;17.83;9.03;;;;;;;;;;5032872;28;20377;-48
2021/10/03 08:41:50;;;;;;;9.90;8.90;;;;;;;;;;5032471;28;20464;-49
2021/10/03 08:44:18;;;;;;;11.87;8.80;;;;;;;;;;5030228;28;20461;-48
2021/10/03 08:46:44;;;;;;;16.23;9.33;;;;;;;;;;5031776;28;21117;-48
2021/10/03 08:49:10;;;;;;;17.53;10.07;;;;;;;;;;5032207;28;20453;-47
2021/10/03 08:51:36;;;;;;;10.63;8.50;;;;;;;;;;5032728;28;20402;-49
2021/10/03 08:54:02;;;;;;;14.63;9.53;;;;;;;;;;5032371;28;20794;-49
2021/10/03 08:56:28;;;;;;;13.80;9.00;;;;;;;;;;5032620;28;20465;-49
2021/10/03 08:58:54;;;;;;;15.60;9.77;;;;;;;;;;5032552;28;20438;-49
2021/10/03 09:01:22;;;;;;;11.30;9.00;;;;;;;;;;5032365;28;20495;-48
2021/10/03 09:03:49;;;;;;;9.17;8.10;;;;;;;;;;5030889;28;20572;-50
2021/10/03 09:06:15;;;;;;;14.20;9.70;;;;;;;;;;5032404;28;20775;-48
2021/10/03 09:08:49;;;;;;;12.97;8.63;;;;;;;;;;5032467;28;20478;-47
2021/10/03 09:11:17;;;;;;;10.70;8.60;;;;;;;;;;5032339;28;20414;-50
2021/10/03 09:13:47;;;;;;;10.40;8.50;;;;;;;;;;5031044;28;20476;-49
2021/10/03 09:16:13;;;;;;;10.43;9.13;;;;;;;;;;5032160;28;20426;-49
2021/10/03 09:18:43;;;;;;;11.00;9.07;;;;;;;;;;5032164;28;20407;-48
2021/10/03 09:21:10;;;;;;;13.90;9.00;;;;;;;;;;5031230;28;20453;-49
2021/10/03 09:23:36;;;;;;;10.60;8.43;;;;;;;;;;5031648;28;20429;-49
2021/10/03 09:26:03;;;;;;;13.90;9.53;;;;;;;;;;5032126;28;20406;-50
2021/10/03 09:28:30;;;;;;;13.00;9.17;;;;;;;;;;5032301;28;20741;-49
2021/10/03 09:30:58;;;;;;;9.40;8.40;;;;;;;;;;5032012;28;20407;-49
2021/10/03 09:33:24;;;;;;;12.00;8.00;;;;;;;;;;5031736;28;20427;-48
2021/10/03 09:35:56;;;;;;;11.67;8.40;;;;;;;;;;5032012;28;20806;-50
2021/10/03 09:38:22;;;;;;;12.17;8.13;;;;;;;;;;5030945;28;20792;-48
2021/10/03 09:40:59;;;;;;;17.50;8.93;;;;;;;;;;5030863;28;20974;-49
2021/10/03 09:43:37;;;;;;;13.00;8.60;;;;;;;;;;5011984;28;20919;-49
2021/10/03 09:46:03;;;;;;;11.47;9.30;;;;;;;;;;5012089;28;20403;-50
2021/10/03 09:48:29;;;;;;;13.83;8.60;;;;;;;;;;5012152;28;20409;-50
2021/10/03 09:50:55;;;;;;;13.97;9.17;;;;;;;;;;5011741;28;20399;-48
2021/10/03 09:53:21;;;;;;;10.70;8.20;;;;;;;;;;5011736;28;20481;-49
2021/10/03 09:55:47;;;;;;;10.27;8.80;;;;;;;;;;5011936;28;20388;-48
2021/10/03 09:58:13;;;;;;;8.63;7.83;;;;;;;;;;5011857;28;20407;-49
2021/10/03 10:00:39;;;;;;;13.63;9.33;;;;;;;;;;5011647;28;20470;-49
2021/10/03 10:03:05;;;;;;;10.83;8.60;;;;;;;;;;5015567;28;20453;-47
2021/10/03 10:05:31;;;;;;;12.00;8.40;;;;;;;;;;5030401;28;20385;-47
2021/10/03 10:07:58;;;;;;;12.00;8.53;;;;;;;;;;5031071;28;20484;-47
2021/10/03 10:10:24;;;;;;;10.20;7.90;;;;;;;;;;5030566;28;20398;-48
2021/10/03 10:12:50;;;;;;;10.63;8.13;;;;;;;;;;5031243;28;20454;-48
2021/10/03 10:15:21;;;;;;;10.03;9.00;;;;;;;;;;5031343;28;20400;-47
2021/10/03 10:17:46;;;;;;;10.63;8.07;;;;;;;;;;5030190;28;20548;-48
2021/10/03 10:20:20;;;;;;;11.13;8.93;;;;;;;;;;5031404;28;20891;-48
2021/10/03 10:22:58;;;;;;;10.27;8.33;;;;;;;;;;5031021;28;20418;-47
2021/10/03 10:25:39;;;;;;;8.73;7.83;;;;;;;;;;5031504;28;20406;-49
2021/10/03 10:28:07;;;;;;;11.80;8.47;;;;;;;;;;5031476;28;20369;-50
2021/10/03 10:30:34;;;;;;;8.40;7.53;;;;;;;;;;5031432;28;20406;-49
2021/10/03 10:33:04;;;;;;;11.80;8.47;;;;;;;;;;5031013;28;20421;-48
2021/10/03 10:35:30;;;;;;;10.23;8.07;;;;;;;;;;5035182;28;20391;-50
2021/10/03 10:37:56;;;;;;;11.93;7.87;;;;;;;;;;5035129;28;20394;-50
2021/10/03 10:42:51;;;;;;;16.33;8.03;;;;;;;;;;5034723;28;20523;-48
2021/10/03 10:45:30;;;;;;;15.70;8.00;;;;;;;;;;5034703;28;20384;-48
2021/10/03 10:48:13;;;;;;;14.63;7.60;;;;;;;;;;5034929;28;20398;-49
2021/10/03 10:50:40;;;;;;;12.70;7.80;;;;;;;;;;5034915;28;20377;-49
2021/10/03 10:53:16;;;;;;;16.53;8.37;;;;;;;;;;5033652;28;20439;-49
2021/10/03 10:55:43;;;;;;;12.37;8.27;;;;;;;;;;5033462;28;20415;-49
2021/10/03 10:58:10;;;;;;;18.10;8.03;;;;;;;;;;5034683;28;20387;-49
2021/10/03 11:00:54;;;;;;;17.87;8.90;;;;;;;;;;5033652;28;20862;-48
2021/10/03 11:03:20;;;;;;;13.97;8.33;;;;;;;;;;5034879;28;20400;-47
2021/10/03 11:05:47;;;;;;;13.80;8.47;;;;;;;;;;5033902;28;20417;-48
2021/10/03 11:08:16;;;;;;;14.93;8.53;;;;;;;;;;5034777;28;20377;-48
2021/10/03 11:10:58;;;;;;;14.10;7.93;;;;;;;;;;5035039;28;20408;-46
2021/10/03 11:13:39;;;;;;;15.00;8.10;;;;;;;;;;5033637;28;20409;-48
2021/10/03 11:16:26;;;;;;;12.20;7.77;;;;;;;;;;5014741;28;20421;-49
2021/10/03 11:18:52;;;;;;;11.97;8.30;;;;;;;;;;5014401;28;20882;-48
2021/10/03 11:21:22;;;;;;;19.73;8.50;;;;;;;;;;5014476;28;20462;-47
2021/10/03 11:23:48;;;;;;;10.23;8.73;;;;;;;;;;5015125;28;20428;-50
2021/10/03 11:26:14;;;;;;;10.00;8.90;;;;;;;;;;5033409;28;20414;-49
2021/10/03 11:28:53;;;;;;;11.30;8.13;;;;;;;;;;5049680;23;20569;-49
2021/10/03 11:31:36;;;;;;;10.77;8.30;;;;;;;;;;5013573;28;20435;-50
2021/10/03 11:34:03;;;;;;;12.30;8.53;;;;;;;;;;5013014;28;20400;-48
2021/10/03 11:36:30;;;;;;;11.40;7.97;;;;;;;;;;5014328;28;20374;-48
2021/10/03 11:38:57;;;;;;;11.13;7.30;;;;;;;;;;5022681;28;20740;-48
2021/10/03 11:41:23;;;;;;;8.83;7.93;;;;;;;;;;5033859;28;20432;-48
2021/10/03 11:43:49;;;;;;;11.37;8.23;;;;;;;;;;5026198;28;20427;-49
2021/10/03 11:46:15;;;;;;;10.57;8.00;;;;;;;;;;5014106;28;20375;-48
2021/10/03 11:48:41;;;;;;;14.17;8.00;;;;;;;;;;5014027;28;20470;-50
2021/10/03 11:51:07;;;;;;;10.17;8.53;;;;;;;;;;5013276;28;20568;-47
2021/10/03 11:53:34;;;;;;;9.10;8.20;;;;;;;;;;5012023;28;20418;-48
2021/10/03 11:56:05;;;;;;;7.83;7.03;;;;;;;;;;5013233;28;20386;-48
2021/10/03 11:58:35;;;;;;;10.43;8.87;;;;;;;;;;5013390;28;20829;-50
2021/10/03 12:01:01;;;;;;;9.60;8.27;;;;;;;;;;5012878;28;20456;-47
2021/10/03 12:03:29;;;;;;;9.40;8.30;;;;;;;;;;5012950;28;20756;-48
2021/10/03 12:05:56;;;;;;;8.57;7.67;;;;;;;;;;5013019;28;20383;-48
2021/10/03 12:08:22;;;;;;;9.00;8.10;;;;;;;;;;5013093;28;20403;-48
2021/10/03 12:10:52;;;;;;;9.50;7.27;;;;;;;;;;5012904;28;20840;-48
2021/10/03 12:13:22;;;;;;;21.60;8.07;;;;;;;;;;5011737;28;21032;-48
2021/10/03 12:15:52;;;;;;;8.77;7.80;;;;;;;;;;4999303;28;20402;-48
2021/10/03 12:18:28;;;;;;;9.17;8.27;;;;;;;;;;5012829;28;21180;-48
2021/10/03 12:20:56;;;;;;;9.07;8.00;;;;;;;;;;5012645;28;20547;-48
2021/10/03 12:23:38;;;;;;;11.47;9.20;;;;;;;;;;5012697;28;20509;-48
2021/10/03 12:26:23;;;;;;;12.63;8.40;;;;;;;;;;5012295;28;20390;-48
2021/10/03 12:28:50;;;;;;;10.27;8.67;;;;;;;;;;5013106;28;20517;-48
2021/10/03 12:31:33;;;;;;;14.83;8.90;;;;;;;;;;5013137;28;20462;-48
2021/10/03 12:33:59;;;;;;;12.00;8.90;;;;;;;;;;5013010;28;20370;-48
2021/10/03 12:36:25;;;;;;;13.30;8.50;;;;;;;;;;5013206;28;20376;-48
2021/10/03 12:38:51;;;;;;;13.13;9.40;;;;;;;;;;5012936;28;20940;-49
2021/10/03 12:41:17;;;;;;;19.17;9.40;;;;;;;;;;5012859;28;20861;-48
2021/10/03 12:43:50;;;;;;;9.87;8.63;;;;;;;;;;5009710;28;20392;-47
2021/10/03 12:46:16;;;;;;;11.03;8.43;;;;;;;;;;4993396;28;20401;-48
2021/10/03 12:48:42;;;;;;;9.93;8.90;;;;;;;;;;4993178;28;20835;-48
2021/10/03 12:51:08;;;;;;;10.60;8.77;;;;;;;;;;4993073;28;20405;-49
2021/10/03 12:53:34;;;;;;;10.63;8.67;;;;;;;;;;4992979;28;20465;-48
2021/10/03 12:56:00;;;;;;;7.93;7.13;;;;;;;;;;4993439;28;20735;-48
2021/10/03 12:58:26;;;;;;;10.13;8.60;;;;;;;;;;4993050;28;20986;-49
2021/10/03 13:00:53;;;;;;;9.70;7.80;;;;;;;;;;4993097;28;20558;-48
2021/10/03 13:03:19;;;;;;;8.83;7.37;;;;;;;;;;4992878;28;20401;-48
2021/10/03 13:05:45;;;;;;;7.93;6.43;;;;;;;;;;4993115;28;20406;-50
2021/10/03 13:08:11;;;;;;;7.93;7.13;;;;;;;;;;4992877;28;20489;-49
2021/10/03 13:10:37;;;;;;;11.43;7.30;;;;;;;;;;4993032;28;20388;-48
2021/10/03 13:13:02;;;;;;;8.40;7.50;;;;;;;;;;4992749;28;20746;-48
2021/10/03 13:15:28;;;;;;;7.43;6.60;;;;;;;;;;5010036;28;20523;-48
2021/10/03 13:17:54;;;;;;;8.23;7.43;;;;;;;;;;5011567;28;20407;-49
2021/10/03 13:20:20;;;;;;;9.30;7.13;;;;;;;;;;5012268;28;20402;-48
2021/10/03 13:22:46;;;;;;;7.27;6.50;;;;;;;;;;5012069;28;20402;-47
2021/10/03 13:25:13;;;;;;;7.90;7.10;;;;;;;;;;5012358;28;20381;-48
2021/10/03 13:27:39;;;;;;;18.13;8.00;;;;;;;;;;5012353;28;20459;-48
2021/10/03 13:30:06;;;;;;;9.10;8.17;;;;;;;;;;5012227;28;20503;-47
2021/10/03 13:32:32;;;;;;;10.40;7.00;;;;;;;;;;5011978;28;20859;-48
2021/10/03 13:34:58;;;;;;;6.87;6.17;;;;;;;;;;5012215;28;20442;-48
2021/10/03 13:37:24;;;;;;;6.23;5.63;;;;;;;;;;5012138;28;20401;-48
2021/10/03 13:39:50;;;;;;;8.67;6.93;;;;;;;;;;5012003;28;20522;-47
2021/10/03 13:42:16;;;;;;;9.13;6.30;;;;;;;;;;5011828;28;20460;-48
2021/10/03 13:44:42;;;;;;;6.47;5.90;;;;;;;;;;5003255;28;20448;-48
2021/10/03 13:47:08;;;;;;;8.63;5.83;;;;;;;;;;5012152;28;20894;-49
2021/10/03 13:49:34;;;;;;;8.63;6.20;;;;;;;;;;5011950;28;20453;-49
2021/10/03 13:52:00;;;;;;;7.20;5.90;;;;;;;;;;5011702;28;20947;-50
2021/10/03 13:54:26;;;;;;;6.80;6.20;;;;;;;;;;5012102;28;20465;-47
2021/10/03 13:56:52;;;;;;;7.13;6.27;;;;;;;;;;5012084;28;20373;-48
2021/10/03 13:59:20;;;;;;;8.13;5.80;;;;;;;;;;5011896;28;20397;-48
2021/10/03 14:01:46;;;;;;;6.40;5.80;;;;;;;;;;5011764;28;20454;-48
2021/10/03 14:04:12;;;;;;;5.77;5.17;;;;;;;;;;5011956;28;20497;-48
2021/10/03 14:06:38;;;;;;;6.53;5.80;;;;;;;;;;5011837;28;20412;-48
2021/10/03 14:09:04;;;;;;;6.30;4.67;;;;;;;;;;5015751;28;20398;-48
2021/10/03 14:11:30;;;;;;;6.20;5.30;;;;;;;;;;5015810;28;20407;-48
2021/10/03 14:13:55;;;;;;;5.93;5.30;;;;;;;;;;5006138;28;20438;-48
2021/10/03 14:16:22;;;;;;;6.73;4.97;;;;;;;;;;4996190;28;20419;-50
2021/10/03 14:18:47;;;;;;;6.87;5.17;;;;;;;;;;4996107;28;20427;-50
2021/10/03 14:21:13;;;;;;;6.10;4.63;;;;;;;;;;4995984;28;20541;-48
2021/10/03 14:23:39;;;;;;;5.37;4.90;;;;;;;;;;4995873;28;20382;-48
2021/10/03 14:26:05;;;;;;;6.27;4.60;;;;;;;;;;4996202;28;20386;-48
2021/10/03 14:28:31;;;;;;;6.47;5.07;;;;;;;;;;4995758;28;20417;-48
2021/10/03 14:30:57;;;;;;;5.67;5.03;;;;;;;;;;4995927;28;20407;-48
2021/10/03 14:33:23;;;;;;;6.07;4.93;;;;;;;;;;4995627;28;20413;-48
2021/10/03 14:35:49;;;;;;;6.20;5.00;;;;;;;;;;4995872;28;20427;-49
2021/10/03 14:38:15;;;;;;;5.37;4.87;;;;;;;;;;4995752;28;20466;-49
2021/10/03 14:40:41;;;;;;;6.57;5.00;;;;;;;;;;4995845;28;20432;-48